createdAt,value
2018-06-11T00:01:05.335Z,17.50
2018-06-11T00:02:05.244Z,17.70
2018-06-11T00:03:58.519Z,18.20
2018-06-11T00:04:58.455Z,18.20
2018-06-11T00:06:51.859Z,18.10
2018-06-11T00:07:51.672Z,18.60
2018-06-11T00:09:45.057Z,18.80
2018-06-11T00:10:44.887Z,18.00
2018-06-11T00:12:38.289Z,17.30
2018-06-11T00:13:38.103Z,17.40
2018-06-11T00:15:31.383Z,16.70
2018-06-11T00:16:31.316Z,17.20
2018-06-11T00:18:24.627Z,17.40
2018-06-11T00:19:24.545Z,17.80
2018-06-11T00:21:17.821Z,17.80
2018-06-11T00:22:17.758Z,17.50
2018-06-11T00:24:11.054Z,17.40
2018-06-11T00:25:10.975Z,17.50
2018-06-11T00:27:04.490Z,17.40
2018-06-11T00:28:04.394Z,16.70
2018-06-11T00:29:57.666Z,16.60
2018-06-11T00:30:57.602Z,16.40
2018-06-11T00:32:50.900Z,17.20
2018-06-11T00:33:50.821Z,16.10
2018-06-11T00:35:44.093Z,16.00
2018-06-11T00:36:44.031Z,16.10
2018-06-11T00:38:37.432Z,16.70
2018-06-11T00:39:37.245Z,17.00
2018-06-11T00:41:30.522Z,16.40
2018-06-11T00:42:30.458Z,16.10
2018-06-11T00:44:23.756Z,16.70
2018-06-11T00:45:23.673Z,16.80
2018-06-11T00:47:16.950Z,16.40
2018-06-11T00:48:16.890Z,16.20
2018-06-11T00:50:10.185Z,17.00
2018-06-11T00:51:10.104Z,16.60
2018-06-11T00:53:03.412Z,16.00
2018-06-11T00:54:03.317Z,15.20
2018-06-11T00:55:56.697Z,15.70
2018-06-11T00:56:56.531Z,15.30
2018-06-11T00:58:49.931Z,15.10
2018-06-11T00:59:49.743Z,15.60
2018-06-11T01:01:43.021Z,16.30
2018-06-11T01:02:42.957Z,15.40
2018-06-11T01:04:36.469Z,15.10
2018-06-11T01:05:36.389Z,15.10
2018-06-11T01:07:29.769Z,14.60
2018-06-11T01:08:29.598Z,15.10
2018-06-11T01:10:22.889Z,15.90
2018-06-11T01:11:22.808Z,15.80
2018-06-11T01:13:16.104Z,15.80
2018-06-11T01:14:16.024Z,15.30
2018-06-11T01:16:09.319Z,15.40
2018-06-11T01:17:09.238Z,15.20
2018-06-11T01:19:02.534Z,15.70
2018-06-11T01:20:02.455Z,15.30
2018-06-11T01:21:55.729Z,15.10
2018-06-11T01:22:55.669Z,15.30
2018-06-11T01:24:48.963Z,14.70
2018-06-11T01:25:48.880Z,14.80
2018-06-11T01:27:42.159Z,15.20
2018-06-11T01:28:42.095Z,15.40
2018-06-11T01:30:35.499Z,15.60
2018-06-11T01:31:35.312Z,15.70
2018-06-11T01:33:28.586Z,15.60
2018-06-11T01:37:28.731Z,15.00
2018-06-11T01:38:13.796Z,15.40
2018-06-11T01:40:07.195Z,15.30
2018-06-11T01:41:07.011Z,16.00
2018-06-11T01:43:00.447Z,15.60
2018-06-11T01:44:00.384Z,14.80
2018-06-11T01:45:53.785Z,16.40
2018-06-11T01:46:53.597Z,15.70
2018-06-11T01:48:46.881Z,15.10
2018-06-11T01:49:46.810Z,14.70
2018-06-11T01:51:40.106Z,15.80
2018-06-11T01:52:40.027Z,15.50
2018-06-11T01:54:33.302Z,15.80
2018-06-11T01:55:33.242Z,15.30
2018-06-11T01:57:26.535Z,14.60
2018-06-11T01:58:26.455Z,14.30
2018-06-11T02:00:19.753Z,15.60
2018-06-11T02:01:19.665Z,15.50
2018-06-11T02:03:13.549Z,15.50
2018-06-11T02:04:12.880Z,15.70
2018-06-11T02:06:06.175Z,15.10
2018-06-11T02:07:06.097Z,16.30
2018-06-11T02:08:59.475Z,14.20
2018-06-11T02:09:59.308Z,14.60
2018-06-11T02:11:52.603Z,14.70
2018-06-11T02:12:52.525Z,15.80
2018-06-11T02:14:45.799Z,13.90
2018-06-11T02:15:45.736Z,14.40
2018-06-11T02:17:39.021Z,14.30
2018-06-11T02:18:38.940Z,14.50
2018-06-11T02:20:32.218Z,15.00
2018-06-11T02:21:32.154Z,14.50
2018-06-11T02:23:25.449Z,14.60
2018-06-11T02:24:25.368Z,15.10
2018-06-11T02:26:18.660Z,14.90
2018-06-11T02:27:18.581Z,14.00
2018-06-11T02:29:11.854Z,14.10
2018-06-11T02:30:11.794Z,13.90
2018-06-11T02:32:05.092Z,15.60
2018-06-11T02:33:05.009Z,14.60
2018-06-11T02:34:58.449Z,15.10
2018-06-11T02:35:58.385Z,14.20
2018-06-11T02:37:51.683Z,14.00
2018-06-11T02:38:51.600Z,13.10
2018-06-11T02:40:44.877Z,13.60
2018-06-11T02:41:44.813Z,13.90
2018-06-11T02:43:38.110Z,14.20
2018-06-11T02:44:38.028Z,14.40
2018-06-11T02:46:31.910Z,14.20
2018-06-11T02:47:31.241Z,14.20
2018-06-11T02:49:24.544Z,13.80
2018-06-11T02:50:24.462Z,13.50
2018-06-11T02:52:17.758Z,13.20
2018-06-11T02:53:17.676Z,12.90
2018-06-11T02:55:10.952Z,13.30
2018-06-11T02:56:10.889Z,13.10
2018-06-11T02:58:04.186Z,12.20
2018-06-11T02:59:04.104Z,12.70
2018-06-11T03:00:57.485Z,13.30
2018-06-11T03:01:57.320Z,13.20
2018-06-11T03:03:50.612Z,12.40
2018-06-11T03:04:50.533Z,12.90
2018-06-11T03:06:43.809Z,13.30
2018-06-11T03:07:43.746Z,13.20
2018-06-11T03:09:37.041Z,13.90
2018-06-11T03:10:36.959Z,13.00
2018-06-11T03:12:30.444Z,13.60
2018-06-11T03:13:30.405Z,13.20
2018-06-11T03:15:23.677Z,12.60
2018-06-11T03:16:23.596Z,13.30
2018-06-11T03:18:16.874Z,14.00
2018-06-11T03:19:16.811Z,13.60
2018-06-11T03:21:10.104Z,12.50
2018-06-11T03:22:10.025Z,13.20
2018-06-11T03:24:03.321Z,12.60
2018-06-11T03:25:03.237Z,13.40
2018-06-11T03:26:56.515Z,13.70
2018-06-11T03:27:56.450Z,13.60
2018-06-11T03:29:49.746Z,13.40
2018-06-11T03:30:49.666Z,13.00
2018-06-11T03:32:42.942Z,13.80
2018-06-11T03:33:42.878Z,13.10
2018-06-11T03:35:36.184Z,12.50
2018-06-11T03:36:36.098Z,12.10
2018-06-11T03:38:29.375Z,12.10
2018-06-11T03:39:29.311Z,11.20
2018-06-11T03:41:22.607Z,11.20
2018-06-11T03:42:22.525Z,10.90
2018-06-11T03:44:15.848Z,11.10
2018-06-11T03:45:15.768Z,11.10
2018-06-11T03:47:09.168Z,11.20
2018-06-11T03:48:08.982Z,10.40
2018-06-11T03:50:02.469Z,10.30
2018-06-11T03:51:02.387Z,10.60
2018-06-11T03:52:55.662Z,10.60
2018-06-11T03:53:55.599Z,10.20
2018-06-11T03:55:48.895Z,10.20
2018-06-11T03:56:48.815Z,10.40
2018-06-11T03:58:42.089Z,10.00
2018-06-11T03:59:42.027Z,9.70
2018-06-11T04:01:35.428Z,9.80
2018-06-11T04:02:35.247Z,9.20
2018-06-11T04:04:28.518Z,9.20
2018-06-11T04:05:28.454Z,8.70
2018-06-11T04:07:21.782Z,8.80
2018-06-11T04:08:21.697Z,8.40
2018-06-11T04:10:15.005Z,9.10
2018-06-11T04:11:14.918Z,8.50
2018-06-11T04:13:08.187Z,8.30
2018-06-11T04:14:08.124Z,8.40
2018-06-11T04:16:01.522Z,7.50
2018-06-11T04:17:01.340Z,7.80
2018-06-11T04:18:54.613Z,7.90
2018-06-11T04:19:54.549Z,7.80
2018-06-11T04:21:47.846Z,7.20
2018-06-11T04:22:47.762Z,7.50
2018-06-11T04:24:41.039Z,7.70
2018-06-11T04:25:40.976Z,8.40
2018-06-11T04:27:34.274Z,7.60
2018-06-11T04:28:34.194Z,7.70
2018-06-11T04:30:27.468Z,8.10
2018-06-11T04:31:27.405Z,7.50
2018-06-11T04:33:20.707Z,7.30
2018-06-11T04:34:20.625Z,7.40
2018-06-11T04:36:13.922Z,7.30
2018-06-11T04:37:13.835Z,8.00
2018-06-11T04:39:07.111Z,8.10
2018-06-11T04:40:07.050Z,8.50
2018-06-11T04:42:00.468Z,8.30
2018-06-11T04:43:00.386Z,7.90
2018-06-11T04:44:53.660Z,8.00
2018-06-11T04:45:53.599Z,7.90
2018-06-11T04:47:46.891Z,7.90
2018-06-11T04:48:46.812Z,8.00
2018-06-11T04:50:40.087Z,7.30
2018-06-11T04:51:40.024Z,7.90
2018-06-11T04:53:33.320Z,8.10
2018-06-11T04:54:33.236Z,7.90
2018-06-11T04:56:26.511Z,8.10
2018-06-11T04:57:26.447Z,7.90
2018-06-11T04:59:19.751Z,7.20
2018-06-11T05:00:19.670Z,7.60
2018-06-11T05:02:12.963Z,7.70
2018-06-11T05:03:12.881Z,7.40
2018-06-11T05:05:06.157Z,7.10
2018-06-11T05:06:06.093Z,7.50
2018-06-11T05:07:59.492Z,8.00
2018-06-11T05:08:59.307Z,7.50
2018-06-11T05:10:52.584Z,7.30
2018-06-11T05:11:52.521Z,7.30
2018-06-11T05:13:45.817Z,7.30
2018-06-11T05:14:45.734Z,6.90
2018-06-11T05:16:39.011Z,7.90
2018-06-11T05:17:38.948Z,7.50
2018-06-11T05:19:32.244Z,7.80
2018-06-11T05:20:32.163Z,7.60
2018-06-11T05:22:25.463Z,7.70
2018-06-11T05:23:25.378Z,7.80
2018-06-11T05:25:18.654Z,7.60
2018-06-11T05:26:18.590Z,7.60
2018-06-11T05:28:11.387Z,7.60
2018-06-11T05:29:11.310Z,7.00
2018-06-11T05:31:04.686Z,7.00
2018-06-11T05:32:04.519Z,6.80
2018-06-11T05:33:57.815Z,7.80
2018-06-11T05:34:57.734Z,7.60
2018-06-11T05:36:51.118Z,7.20
2018-06-11T05:37:50.948Z,7.60
2018-06-11T05:39:44.248Z,7.80
2018-06-11T05:40:44.167Z,7.90
2018-06-11T05:42:37.441Z,7.40
2018-06-11T05:43:37.377Z,7.50
2018-06-11T05:45:30.667Z,7.50
2018-06-11T05:46:30.595Z,7.40
2018-06-11T05:48:23.885Z,8.20
2018-06-11T05:49:23.791Z,7.60
2018-06-11T05:51:17.056Z,8.10
2018-06-11T05:52:16.996Z,8.40
2018-06-11T05:54:10.897Z,7.20
2018-06-11T05:55:10.385Z,7.80
2018-06-11T05:57:03.675Z,7.60
2018-06-11T05:58:03.601Z,7.70
2018-06-11T05:59:56.898Z,8.20
2018-06-11T06:00:56.829Z,8.10
2018-06-11T06:02:50.099Z,8.20
2018-06-11T06:03:50.037Z,8.30
2018-06-11T06:05:43.337Z,8.00
2018-06-11T06:06:43.257Z,7.90
2018-06-11T06:08:36.645Z,7.60
2018-06-11T06:09:36.475Z,7.60
2018-06-11T06:11:29.774Z,8.20
2018-06-11T06:12:29.693Z,8.00
2018-06-11T06:14:23.096Z,8.30
2018-06-11T06:15:22.914Z,7.80
2018-06-11T06:17:16.296Z,7.50
2018-06-11T06:18:16.133Z,7.90
2018-06-11T06:20:09.431Z,8.10
2018-06-11T06:21:09.352Z,8.10
2018-06-11T06:23:02.734Z,7.20
2018-06-11T06:24:02.565Z,7.70
2018-06-11T06:25:55.859Z,7.90
2018-06-11T06:26:55.780Z,7.60
2018-06-11T06:28:49.058Z,8.40
2018-06-11T06:29:48.998Z,8.20
2018-06-11T06:31:42.473Z,8.20
2018-06-11T06:32:42.390Z,8.60
2018-06-11T06:34:35.774Z,8.60
2018-06-11T06:35:35.600Z,9.00
2018-06-11T06:37:28.889Z,9.20
2018-06-11T06:38:28.812Z,9.00
2018-06-11T06:40:22.214Z,9.70
2018-06-11T06:41:22.024Z,9.20
2018-06-11T06:43:15.444Z,9.80
2018-06-11T06:44:15.389Z,10.30
2018-06-11T06:46:08.673Z,9.80
2018-06-11T06:47:08.595Z,9.80
2018-06-11T06:49:01.866Z,9.70
2018-06-11T06:50:01.811Z,9.30
2018-06-11T06:51:56.095Z,8.60
2018-06-11T06:52:56.016Z,8.90
2018-06-11T06:54:49.454Z,9.30
2018-06-11T06:55:49.391Z,8.70
2018-06-11T06:57:42.683Z,9.00
2018-06-11T06:58:42.605Z,9.40
2018-06-11T07:00:35.892Z,8.90
2018-06-11T07:01:35.814Z,8.80
2018-06-11T07:03:29.090Z,8.60
2018-06-11T07:04:29.025Z,9.10
2018-06-11T07:06:22.427Z,8.20
2018-06-11T07:07:22.240Z,8.60
2018-06-11T07:09:15.625Z,9.20
2018-06-11T07:10:15.455Z,9.40
2018-06-11T07:12:08.863Z,8.70
2018-06-11T07:13:08.670Z,8.80
2018-06-11T07:15:01.938Z,9.10
2018-06-11T07:16:01.883Z,9.80
2018-06-11T07:17:55.178Z,9.50
2018-06-11T07:18:55.101Z,8.70
2018-06-11T07:20:49.377Z,9.40
2018-06-11T07:21:49.311Z,9.80
2018-06-11T07:23:42.601Z,9.40
2018-06-11T07:24:42.521Z,9.30
2018-06-11T07:26:35.813Z,9.50
2018-06-11T07:27:35.733Z,9.50
2018-06-11T07:29:29.121Z,9.70
2018-06-11T07:30:28.948Z,9.40
2018-06-11T07:32:22.238Z,9.10
2018-06-11T07:33:22.162Z,9.60
2018-06-11T07:35:15.546Z,10.30
2018-06-11T07:36:15.377Z,10.60
2018-06-11T07:38:08.687Z,10.50
2018-06-11T07:39:08.607Z,10.00
2018-06-11T07:41:01.911Z,9.50
2018-06-11T07:42:01.822Z,9.30
2018-06-11T07:43:55.116Z,9.50
2018-06-11T07:44:55.041Z,9.80
2018-06-11T07:46:48.327Z,9.70
2018-06-11T07:47:48.270Z,9.20
2018-06-11T07:49:41.576Z,10.50
2018-06-11T07:50:41.500Z,10.40
2018-06-11T07:52:34.797Z,10.40
2018-06-11T07:53:34.721Z,9.80
2018-06-11T07:55:28.001Z,9.40
2018-06-11T07:56:27.941Z,9.50
2018-06-11T07:58:21.240Z,10.10
2018-06-11T07:59:21.165Z,10.20
2018-06-11T08:01:14.452Z,9.60
2018-06-11T08:02:14.397Z,9.50
2018-06-11T08:04:07.696Z,9.90
2018-06-11T08:05:07.625Z,9.60
2018-06-11T08:07:01.013Z,9.60
2018-06-11T08:08:00.858Z,10.20
2018-06-11T08:09:54.159Z,9.70
2018-06-11T08:10:54.085Z,9.70
2018-06-11T08:12:47.479Z,9.10
2018-06-11T08:13:47.404Z,9.00
2018-06-11T08:15:40.812Z,9.00
2018-06-11T08:16:40.630Z,9.10
2018-06-11T08:18:34.042Z,9.50
2018-06-11T08:19:33.862Z,9.90
2018-06-11T08:21:27.146Z,9.40
2018-06-11T08:22:27.092Z,9.40
2018-06-11T08:24:20.425Z,9.30
2018-06-11T08:25:20.353Z,8.80
2018-06-11T08:27:13.639Z,8.40
2018-06-11T08:28:13.587Z,8.90
2018-06-11T08:30:06.888Z,9.60
2018-06-11T08:31:06.817Z,9.70
2018-06-11T08:33:00.109Z,10.30
2018-06-11T08:34:00.041Z,10.70
2018-06-11T08:35:53.477Z,10.40
2018-06-11T08:36:53.400Z,10.30
2018-06-11T08:38:46.812Z,10.00
2018-06-11T08:39:46.631Z,9.60
2018-06-11T08:41:39.915Z,10.90
2018-06-11T08:42:39.862Z,11.20
2018-06-11T08:44:33.161Z,10.30
2018-06-11T08:45:33.091Z,10.70
2018-06-11T08:47:26.392Z,11.40
2018-06-11T08:48:26.337Z,11.50
2018-06-11T08:50:19.634Z,11.90
2018-06-11T08:51:19.563Z,11.70
2018-06-11T08:53:12.845Z,11.00
2018-06-11T08:54:12.792Z,12.00
2018-06-11T08:56:07.202Z,12.10
2018-06-11T08:57:07.015Z,12.90
2018-06-11T08:59:00.296Z,13.30
2018-06-11T09:00:00.253Z,13.40
2018-06-11T09:01:53.538Z,13.10
2018-06-11T09:02:53.472Z,13.00
2018-06-11T09:04:46.769Z,12.30
2018-06-11T09:05:46.701Z,12.00
2018-06-11T09:07:39.973Z,12.60
2018-06-11T09:08:39.918Z,13.00
2018-06-11T09:10:33.216Z,12.00
2018-06-11T09:11:33.145Z,12.30
2018-06-11T09:13:26.535Z,11.90
2018-06-11T09:14:26.378Z,12.20
2018-06-11T09:16:19.788Z,11.70
2018-06-11T09:17:19.606Z,11.60
2018-06-11T09:19:12.995Z,11.20
2018-06-11T09:20:12.837Z,10.90
2018-06-11T09:22:06.134Z,12.20
2018-06-11T09:23:06.061Z,12.10
2018-06-11T09:24:59.526Z,11.50
2018-06-11T09:25:59.402Z,11.20
2018-06-11T09:27:52.792Z,11.30
2018-06-11T09:28:52.626Z,11.20
2018-06-11T09:30:45.926Z,11.40
2018-06-11T09:31:45.854Z,11.30
2018-06-11T09:33:39.139Z,10.90
2018-06-11T09:34:39.084Z,10.80
2018-06-11T09:36:32.387Z,10.80
2018-06-11T09:37:32.310Z,10.30
2018-06-11T09:39:25.594Z,10.70
2018-06-11T09:40:25.542Z,10.70
2018-06-11T09:42:18.848Z,10.00
2018-06-11T09:43:18.770Z,9.90
2018-06-11T09:45:12.075Z,10.20
2018-06-11T09:46:12.000Z,9.40
2018-06-11T09:48:05.471Z,10.70
2018-06-11T09:49:05.446Z,10.10
2018-06-11T09:50:58.808Z,9.00
2018-06-11T09:51:58.626Z,10.30
2018-06-11T09:53:51.906Z,9.40
2018-06-11T09:54:51.853Z,9.30
2018-06-11T09:56:45.153Z,9.30
2018-06-11T09:57:45.080Z,9.90
2018-06-11T09:59:38.364Z,9.10
2018-06-11T10:00:38.307Z,8.90
2018-06-11T10:02:31.621Z,8.50
2018-06-11T10:03:31.549Z,8.40
2018-06-11T10:05:24.942Z,9.30
2018-06-11T10:06:24.775Z,8.70
2018-06-11T10:08:18.081Z,9.00
2018-06-11T10:09:18.009Z,9.00
2018-06-11T10:11:11.316Z,8.90
2018-06-11T10:12:11.286Z,9.30
2018-06-11T10:14:04.634Z,9.20
2018-06-11T10:15:04.470Z,9.50
2018-06-11T10:16:57.771Z,8.50
2018-06-11T10:17:57.703Z,8.60
2018-06-11T10:19:50.987Z,8.70
2018-06-11T10:20:50.933Z,8.60
2018-06-11T10:22:44.239Z,9.20
2018-06-11T10:23:44.164Z,8.80
2018-06-11T10:25:37.444Z,8.70
2018-06-11T10:26:37.400Z,9.00
2018-06-11T10:28:30.693Z,8.90
2018-06-11T10:29:30.625Z,9.20
2018-06-11T10:31:23.908Z,9.60
2018-06-11T10:32:23.924Z,10.20
2018-06-11T10:34:17.156Z,9.70
2018-06-11T10:35:17.086Z,9.70
2018-06-11T10:37:10.997Z,9.70
2018-06-11T10:38:10.403Z,9.20
2018-06-11T10:40:03.689Z,9.10
2018-06-11T10:41:03.635Z,8.80
2018-06-11T10:42:57.047Z,9.20
2018-06-11T10:43:56.865Z,9.20
2018-06-11T10:45:50.152Z,8.80
2018-06-11T10:46:50.103Z,8.80
2018-06-11T10:48:43.405Z,8.90
2018-06-11T10:49:43.333Z,9.30
2018-06-11T10:51:36.617Z,8.40
2018-06-11T10:52:36.564Z,8.50
2018-06-11T10:54:29.864Z,8.70
2018-06-11T10:55:29.796Z,8.20
2018-06-11T10:57:23.119Z,8.00
2018-06-11T10:58:23.043Z,8.60
2018-06-11T11:00:16.458Z,8.00
2018-06-11T11:01:16.402Z,8.70
2018-06-11T11:03:09.818Z,8.70
2018-06-11T11:04:09.631Z,8.70
2018-06-11T11:06:03.035Z,8.20
2018-06-11T11:07:02.872Z,8.60
2018-06-11T11:08:56.298Z,9.10
2018-06-11T11:09:56.125Z,8.60
2018-06-11T11:11:49.412Z,8.40
2018-06-11T11:12:49.371Z,8.10
2018-06-11T11:14:42.667Z,7.70
2018-06-11T11:15:42.593Z,7.80
2018-06-11T11:17:35.883Z,8.60
2018-06-11T11:18:35.830Z,8.90
2018-06-11T11:20:29.136Z,8.90
2018-06-11T11:21:29.066Z,8.90
2018-06-11T11:23:22.474Z,8.80
2018-06-11T11:24:22.404Z,8.70
2018-06-11T11:26:15.691Z,8.80
2018-06-11T11:27:15.638Z,8.50
2018-06-11T11:29:08.944Z,8.00
2018-06-11T11:30:08.874Z,8.20
2018-06-11T11:32:02.156Z,8.40
2018-06-11T11:33:02.104Z,9.20
2018-06-11T11:34:55.411Z,8.50
2018-06-11T11:35:55.338Z,8.70
2018-06-11T11:37:48.626Z,8.30
2018-06-11T11:38:48.573Z,8.60
2018-06-11T11:40:41.875Z,9.80
2018-06-11T11:41:41.804Z,9.60
2018-06-11T11:43:35.109Z,9.20
2018-06-11T11:44:35.033Z,9.70
2018-06-11T11:46:28.322Z,9.30
2018-06-11T11:47:28.263Z,9.20
2018-06-11T11:49:21.567Z,9.20
2018-06-11T11:50:21.495Z,8.60
2018-06-11T11:52:14.888Z,8.40
2018-06-11T11:53:14.731Z,8.60
2018-06-11T11:55:08.897Z,9.30
2018-06-11T11:56:08.820Z,9.50
2018-06-11T11:58:02.103Z,9.00
2018-06-11T11:59:02.049Z,9.80
2018-06-11T12:00:55.474Z,9.20
2018-06-11T12:01:55.401Z,8.80
2018-06-11T12:03:48.683Z,9.00
2018-06-11T12:04:48.627Z,9.90
2018-06-11T12:06:41.934Z,9.60
2018-06-11T12:07:41.884Z,10.10
2018-06-11T12:09:35.181Z,9.60
2018-06-11T12:10:35.109Z,9.00
2018-06-11T12:12:28.388Z,9.20
2018-06-11T12:13:28.330Z,9.40
2018-06-11T12:15:21.641Z,9.40
2018-06-11T12:16:21.563Z,9.00
2018-06-11T12:18:14.845Z,8.90
2018-06-11T12:19:14.788Z,9.40
2018-06-11T12:21:08.091Z,9.60
2018-06-11T12:22:08.022Z,9.80
2018-06-11T12:24:01.451Z,8.70
2018-06-11T12:25:01.396Z,9.50
2018-06-11T12:26:54.723Z,10.00
2018-06-11T12:27:54.643Z,9.70
2018-06-11T12:29:47.922Z,9.70
2018-06-11T12:30:47.866Z,10.10
2018-06-11T12:32:41.275Z,10.30
2018-06-11T12:33:41.101Z,9.60
2018-06-11T12:35:34.405Z,10.40
2018-06-11T12:36:34.329Z,11.50
2018-06-11T12:38:27.718Z,9.90
2018-06-11T12:39:27.554Z,9.60
2018-06-11T12:41:20.963Z,8.20
2018-06-11T12:42:20.779Z,8.60
2018-06-11T12:44:14.672Z,9.50
2018-06-11T12:45:14.002Z,9.30
2018-06-11T12:47:07.470Z,10.10
2018-06-11T12:48:07.395Z,9.60
2018-06-11T12:50:00.680Z,9.30
2018-06-11T12:51:00.620Z,9.60
2018-06-11T12:52:53.921Z,9.40
2018-06-11T12:53:53.845Z,8.90
2018-06-11T12:55:47.128Z,7.80
2018-06-11T12:56:47.073Z,8.00
2018-06-11T12:58:40.383Z,8.70
2018-06-11T12:59:40.305Z,8.60
2018-06-11T13:01:33.647Z,9.50
2018-06-11T13:02:33.528Z,8.80
2018-06-11T13:04:26.919Z,8.30
2018-06-11T13:05:26.752Z,7.60
2018-06-11T13:07:20.052Z,8.80
2018-06-11T13:08:19.981Z,9.10
2018-06-11T13:10:13.456Z,9.30
2018-06-11T13:11:13.395Z,9.70
2018-06-11T13:13:06.693Z,9.60
2018-06-11T13:14:06.671Z,10.20
2018-06-11T13:16:00.013Z,9.50
2018-06-11T13:16:59.841Z,8.70
2018-06-11T13:18:53.146Z,8.90
2018-06-11T13:19:53.065Z,8.50
2018-06-11T13:21:46.356Z,9.60
2018-06-11T13:22:46.295Z,9.90
2018-06-11T13:24:39.597Z,9.40
2018-06-11T13:25:39.520Z,10.10
2018-06-11T13:27:32.825Z,8.80
2018-06-11T13:28:32.750Z,9.70
2018-06-11T13:30:26.030Z,9.10
2018-06-11T13:31:25.974Z,8.70
2018-06-11T13:33:19.477Z,10.50
2018-06-11T13:34:19.398Z,9.70
2018-06-11T13:36:12.786Z,10.40
2018-06-11T13:37:12.630Z,10.60
2018-06-11T13:39:05.939Z,8.60
2018-06-11T13:40:05.863Z,8.80
2018-06-11T13:41:59.155Z,9.30
2018-06-11T13:42:59.100Z,9.50
2018-06-11T13:44:52.409Z,9.10
2018-06-11T13:45:52.332Z,9.30
2018-06-11T13:47:45.739Z,8.50
2018-06-11T13:48:45.562Z,8.70
2018-06-11T13:50:38.870Z,9.20
2018-06-11T13:51:38.793Z,9.40
2018-06-11T13:53:32.104Z,9.30
2018-06-11T13:54:32.039Z,8.60
2018-06-11T13:56:25.419Z,8.00
2018-06-11T13:57:25.263Z,7.80
2018-06-11T13:59:18.674Z,8.10
2018-06-11T14:00:18.501Z,8.00
2018-06-11T14:02:11.890Z,7.90
2018-06-11T14:03:11.732Z,7.60
2018-06-11T14:05:05.045Z,7.60
2018-06-11T14:06:04.969Z,8.30
2018-06-11T14:07:58.893Z,7.00
2018-06-11T14:08:58.394Z,7.40
2018-06-11T14:10:51.704Z,7.10
2018-06-11T14:11:51.631Z,7.90
2018-06-11T14:13:44.941Z,7.10
2018-06-11T14:14:44.866Z,7.40
2018-06-11T14:16:38.156Z,6.40
2018-06-11T14:17:38.109Z,6.90
2018-06-11T14:19:32.013Z,5.90
2018-06-11T14:20:31.393Z,6.50
2018-06-11T14:22:24.684Z,7.00
2018-06-11T14:23:24.626Z,6.60
2018-06-11T14:25:17.938Z,7.90
2018-06-11T14:26:17.865Z,8.00
2018-06-11T14:28:11.149Z,8.80
2018-06-11T14:29:11.092Z,8.50
2018-06-11T14:31:04.464Z,7.00
2018-06-11T14:32:04.391Z,6.80
2018-06-11T14:33:57.823Z,6.70
2018-06-11T14:34:57.627Z,8.40
2018-06-11T14:36:50.920Z,7.90
2018-06-11T14:37:50.864Z,7.50
2018-06-11T14:39:44.272Z,7.60
2018-06-11T14:40:44.101Z,7.10
2018-06-11T14:42:37.395Z,6.00
2018-06-11T14:43:37.339Z,6.20
2018-06-11T14:45:30.651Z,6.80
2018-06-11T14:46:30.576Z,6.50
2018-06-11T14:48:23.968Z,7.10
2018-06-11T14:49:23.815Z,7.60
2018-06-11T14:51:17.725Z,7.00
2018-06-11T14:52:17.082Z,7.20
2018-06-11T14:54:10.345Z,6.50
2018-06-11T14:55:10.292Z,6.60
2018-06-11T14:57:03.601Z,6.30
2018-06-11T14:58:03.589Z,5.60
2018-06-11T14:59:56.856Z,7.10
2018-06-11T15:00:56.765Z,7.50
2018-06-11T15:02:50.063Z,7.30
2018-06-11T15:03:50.009Z,7.90
2018-06-11T15:05:43.480Z,6.80
2018-06-11T15:06:43.396Z,7.00
2018-06-11T15:08:36.701Z,7.90
2018-06-11T15:09:36.647Z,7.30
2018-06-11T15:11:30.560Z,7.70
2018-06-11T15:12:29.883Z,6.70
2018-06-11T15:14:23.175Z,7.90
2018-06-11T15:15:23.121Z,7.60
2018-06-11T15:17:16.433Z,6.40
2018-06-11T15:18:16.360Z,5.50
2018-06-11T15:20:09.677Z,6.50
2018-06-11T15:21:09.598Z,7.80
2018-06-11T15:23:02.903Z,6.30
2018-06-11T15:24:02.831Z,6.50
2018-06-11T15:25:56.150Z,6.40
2018-06-11T15:26:56.072Z,6.60
2018-06-11T15:28:49.453Z,6.90
2018-06-11T15:29:49.400Z,7.00
2018-06-11T15:31:42.722Z,7.30
2018-06-11T15:32:42.648Z,6.90
2018-06-11T15:34:35.963Z,6.50
2018-06-11T15:35:35.886Z,6.80
2018-06-11T15:37:29.213Z,6.60
2018-06-11T15:38:29.132Z,7.30
2018-06-11T15:40:22.523Z,7.90
2018-06-11T15:41:22.370Z,8.70
2018-06-11T15:43:15.782Z,8.00
2018-06-11T15:44:15.649Z,7.00
2018-06-11T15:46:08.960Z,6.90
2018-06-11T15:47:08.884Z,7.30
2018-06-11T15:49:02.176Z,6.80
2018-06-11T15:50:02.166Z,6.40
2018-06-11T15:51:55.471Z,6.60
2018-06-11T15:52:55.399Z,5.90
2018-06-11T15:54:48.687Z,5.60
2018-06-11T15:55:48.632Z,6.30
2018-06-11T15:57:41.934Z,7.00
2018-06-11T15:58:41.863Z,7.40
2018-06-11T16:00:35.197Z,7.40
2018-06-11T16:01:35.096Z,8.00
2018-06-11T16:03:28.403Z,6.90
2018-06-11T16:04:28.331Z,7.50
2018-06-11T16:06:21.675Z,7.50
2018-06-11T16:07:21.588Z,7.10
2018-06-11T16:09:14.876Z,6.90
2018-06-11T16:10:14.821Z,6.90
2018-06-11T16:12:08.256Z,6.80
2018-06-11T16:13:08.056Z,6.30
2018-06-11T16:15:01.965Z,5.60
2018-06-11T16:16:01.397Z,5.30
2018-06-11T16:17:54.701Z,6.10
2018-06-11T16:18:54.623Z,5.90
2018-06-11T16:20:48.014Z,5.80
2018-06-11T16:21:47.857Z,5.50
2018-06-11T16:23:41.165Z,5.70
2018-06-11T16:24:41.094Z,6.10
2018-06-11T16:26:34.387Z,5.20
2018-06-11T16:27:34.329Z,5.60
2018-06-11T16:29:27.640Z,5.10
2018-06-11T16:30:27.565Z,5.20
2018-06-11T16:32:20.875Z,5.50
2018-06-11T16:33:20.803Z,6.10
2018-06-11T16:35:14.092Z,5.30
2018-06-11T16:36:14.036Z,5.60
2018-06-11T16:38:07.472Z,5.00
2018-06-11T16:39:07.397Z,5.00
2018-06-11T16:41:00.788Z,5.80
2018-06-11T16:42:00.632Z,5.50
2018-06-11T16:43:53.940Z,5.20
2018-06-11T16:44:53.871Z,5.10
2018-06-11T16:46:47.162Z,5.40
2018-06-11T16:47:47.119Z,5.10
2018-06-11T16:49:40.447Z,5.20
2018-06-11T16:50:40.334Z,4.40
2018-06-11T16:52:33.625Z,5.80
2018-06-11T16:53:33.576Z,5.10
2018-06-11T16:55:26.876Z,5.30
2018-06-11T16:56:26.802Z,5.00
2018-06-11T16:58:20.729Z,5.70
2018-06-11T16:59:20.040Z,5.50
2018-06-11T17:01:13.330Z,5.30
2018-06-11T17:02:13.278Z,5.20
2018-06-11T17:04:06.590Z,5.60
2018-06-11T17:05:06.509Z,5.30
2018-06-11T17:06:59.799Z,5.20
2018-06-11T17:07:59.745Z,5.20
2018-06-11T17:09:53.050Z,5.70
2018-06-11T17:10:52.987Z,4.90
2018-06-11T17:12:46.466Z,5.10
2018-06-11T17:13:46.391Z,5.00
2018-06-11T17:15:39.701Z,4.80
2018-06-11T17:16:39.626Z,5.50
2018-06-11T17:18:33.516Z,5.00
2018-06-11T17:19:32.859Z,4.80
2018-06-11T17:21:26.269Z,5.10
2018-06-11T17:22:26.094Z,5.20
2018-06-11T17:24:19.400Z,5.00
2018-06-11T17:25:19.327Z,4.50
2018-06-11T17:27:12.722Z,4.80
2018-06-11T17:28:12.559Z,4.50
2018-06-11T17:30:05.872Z,4.50
2018-06-11T17:31:05.790Z,5.10
2018-06-11T17:32:59.066Z,5.10
2018-06-11T17:33:59.018Z,4.80
2018-06-11T17:35:52.471Z,4.60
2018-06-11T17:36:52.401Z,4.80
2018-06-11T17:38:45.682Z,4.90
2018-06-11T17:39:45.628Z,4.70
2018-06-11T17:41:38.934Z,5.80
2018-06-11T17:42:38.861Z,4.90
2018-06-11T17:44:32.270Z,5.30
2018-06-11T17:45:32.096Z,5.20
2018-06-11T17:47:25.373Z,4.90
2018-06-11T17:48:25.315Z,4.90
2018-06-11T17:50:18.623Z,4.70
2018-06-11T17:51:18.597Z,5.00
2018-06-11T17:53:11.936Z,5.30
2018-06-11T17:54:11.784Z,4.70
2018-06-11T17:56:05.079Z,4.80
2018-06-11T17:57:05.042Z,5.10
2018-06-11T17:58:58.472Z,5.30
2018-06-11T17:59:58.394Z,4.90
2018-06-11T18:01:51.694Z,4.80
2018-06-11T18:02:51.661Z,5.00
2018-06-11T18:04:44.926Z,4.90
2018-06-11T18:05:44.852Z,4.60
2018-06-11T18:07:38.148Z,5.50
2018-06-11T18:08:38.071Z,5.50
2018-06-11T18:10:31.377Z,11.90
2018-06-11T18:11:31.302Z,5.70
2018-06-11T18:13:24.581Z,5.40
2018-06-11T18:14:24.525Z,5.40
2018-06-11T18:16:17.831Z,5.40
2018-06-11T18:17:17.756Z,4.80
2018-06-11T18:19:11.043Z,4.70
2018-06-11T18:20:10.988Z,5.10
2018-06-11T18:22:04.299Z,4.90
2018-06-11T18:23:04.218Z,5.40
2018-06-11T18:24:57.506Z,6.20
2018-06-11T18:25:57.453Z,5.20
2018-06-11T18:27:50.758Z,5.30
2018-06-11T18:28:50.684Z,5.30
2018-06-11T18:30:43.982Z,5.40
2018-06-11T18:31:43.913Z,5.30
2018-06-11T18:33:37.220Z,5.10
2018-06-11T18:34:37.144Z,5.10
2018-06-11T18:36:30.440Z,5.60
2018-06-11T18:37:30.368Z,5.30
2018-06-11T18:39:23.651Z,5.40
2018-06-11T18:40:23.594Z,5.30
2018-06-11T18:42:16.890Z,5.30
2018-06-11T18:43:16.812Z,5.20
2018-06-11T18:45:10.092Z,5.00
2018-06-11T18:46:10.034Z,5.40
2018-06-11T18:48:03.472Z,4.50
2018-06-11T18:49:03.394Z,5.00
2018-06-11T18:50:56.781Z,5.80
2018-06-11T18:51:56.624Z,5.90
2018-06-11T18:53:49.930Z,6.00
2018-06-11T18:54:49.858Z,5.60
2018-06-11T18:56:43.176Z,5.50
2018-06-11T18:57:43.085Z,5.70
2018-06-11T18:59:36.358Z,5.80
2018-06-11T19:00:36.300Z,5.00
2018-06-11T19:02:29.708Z,5.70
2018-06-11T19:03:29.516Z,5.80